Time;durP1;ratioP1;P1;durP2;ratioP2;P2;SDS_P1;SDS_P2;PMS_P1;PMS_P2;Temp;Humidity;BMP_temperature;BMP_pressure;BME280_temperature;BME280_humidity;BME280_pressure;Samples;Min_cycle;Max_cycle;Signal;HPM_P1;HPM_P2
2024/04/03 00:02:11;;;;;;;19.10;7.50;;;;;;;14.41;46.43;99087.15;109471;1249;59862;-55
2024/04/03 00:04:41;;;;;;;19.70;7.20;;;;;;;14.35;46.87;99086.79;109403;1253;74226;-54
2024/04/03 00:07:08;;;;;;;14.50;6.10;;;;;;;14.29;47.55;99084.65;109458;1250;65163;-55
2024/04/03 00:09:36;;;;;;;17.50;7.30;;;;;;;14.25;48.15;99088.05;109412;1252;72683;-55
2024/04/03 00:12:03;;;;;;;16.50;7.40;;;;;;;14.22;48.88;99083.48;109422;1251;60149;-55
2024/04/03 00:14:31;;;;;;;18.80;7.30;;;;;;;14.21;49.63;99088.77;109380;1251;60211;-57
2024/04/03 00:16:59;;;;;;;12.60;5.80;;;;;;;14.18;50.03;99101.43;109487;1251;74515;-55
2024/04/03 00:19:26;;;;;;;15.00;5.90;;;;;;;14.13;50.95;99101.55;109438;1250;67474;-55
2024/04/03 00:21:54;;;;;;;13.60;4.20;;;;;;;14.07;51.90;99097.15;109387;1251;72722;-55
2024/04/03 00:24:21;;;;;;;9.80;3.10;;;;;;;14.00;52.60;99098.94;109378;1252;60200;-55
2024/04/03 00:26:48;;;;;;;11.40;3.80;;;;;;;13.92;53.52;99098.96;109413;1251;59825;-55
2024/04/03 00:29:16;;;;;;;6.70;2.60;;;;;;;13.83;55.05;99093.77;109399;1251;75515;-56
2024/04/03 00:31:43;;;;;;;8.60;2.40;;;;;;;13.77;55.79;99104.06;109449;1250;66881;-55
2024/04/03 00:34:11;;;;;;;14.20;3.50;;;;;;;13.67;57.64;99106.70;109252;1251;72750;-55
2024/04/03 00:36:38;;;;;;;11.50;3.90;;;;;;;13.60;59.81;99099.34;109401;1251;60122;-55
2024/04/03 00:39:06;;;;;;;6.90;2.60;;;;;;;13.55;60.60;99096.54;109412;1250;60092;-55
2024/04/03 00:41:34;;;;;;;11.20;2.80;;;;;;;13.47;60.89;99088.84;109437;1251;75513;-56
2024/04/03 00:44:01;;;;;;;11.80;4.00;;;;;;;13.37;62.89;99086.81;109457;1251;67431;-55
2024/04/03 00:46:29;;;;;;;11.90;4.90;;;;;;;13.27;65.49;99080.79;109454;1251;72752;-59
2024/04/03 00:48:56;;;;;;;18.00;6.30;;;;;;;13.20;69.05;99076.73;109358;1251;59837;-54
2024/04/03 00:51:23;;;;;;;12.60;5.60;;;;;;;13.17;70.33;99072.79;109431;1251;60254;-55
2024/04/03 00:53:51;;;;;;;14.00;6.60;;;;;;;13.10;70.98;99074.89;109384;1250;75556;-54
2024/04/03 00:56:18;;;;;;;20.80;8.20;;;;;;;13.02;74.26;99074.20;109495;1251;65601;-54
2024/04/03 00:58:46;;;;;;;17.60;8.20;;;;;;;12.97;77.39;99069.27;109356;1251;72669;-54
2024/04/03 01:01:14;;;;;;;16.40;7.10;;;;;;;12.90;77.98;99072.83;109369;1252;60190;-54
2024/04/03 01:03:42;;;;;;;20.20;9.50;;;;;;;12.81;78.08;99072.94;109463;1251;60415;-53
2024/04/03 01:06:09;;;;;;;20.90;8.10;;;;;;;12.70;79.78;99071.45;109423;1251;74777;-53
2024/04/03 01:08:37;;;;;;;24.30;9.80;;;;;;;12.59;81.66;99078.08;109427;1251;67038;-57
2024/04/03 01:11:04;;;;;;;20.70;9.80;;;;;;;12.50;86.08;99096.06;109389;1251;72046;-53
2024/04/03 01:13:35;;;;;;;19.30;8.70;;;;;;;12.44;92.03;99097.13;109412;1251;60187;-53
2024/04/03 01:16:07;;;;;;;12.50;5.60;;;;;;;12.42;97.02;99086.48;109354;1250;60283;-54
2024/04/03 01:18:34;;;;;;;10.50;4.30;;;;;;;12.45;99.53;99096.30;109403;1251;74231;-53
2024/04/03 01:21:02;;;;;;;8.70;3.40;;;;;;;12.46;100.00;99086.42;109387;1251;67426;-54
2024/04/03 01:23:29;;;;;;;32.10;20.20;;;;;;;12.52;100.00;99079.70;109409;1251;71450;-54
2024/04/03 01:25:57;;;;;;;99.50;52.90;;;;;;;12.59;100.00;99084.75;109416;1251;60137;-54
2024/04/03 01:28:24;;;;;;;26.80;13.10;;;;;;;12.68;100.00;99079.90;109434;1251;60184;-54
2024/04/03 01:30:52;;;;;;;58.70;41.10;;;;;;;12.75;100.00;99082.88;109390;1251;75494;-57
2024/04/03 01:33:19;;;;;;;30.20;20.40;;;;;;;12.76;100.00;99088.13;109403;1250;67794;-54
2024/04/03 01:35:46;;;;;;;12.40;6.60;;;;;;;12.75;100.00;99086.38;109428;1251;73119;-53
2024/04/03 01:38:14;;;;;;;9.90;5.50;;;;;;;12.73;100.00;99086.53;109410;1251;60341;-53
2024/04/03 01:40:41;;;;;;;33.80;22.90;;;;;;;12.70;100.00;99088.89;109463;1250;59954;-57
2024/04/03 01:43:09;;;;;;;24.80;15.10;;;;;;;12.66;100.00;99078.65;109399;1251;75832;-53
2024/04/03 01:45:36;;;;;;;36.70;22.10;;;;;;;12.64;100.00;99075.56;109420;1251;65834;-53
2024/04/03 01:48:04;;;;;;;24.20;16.30;;;;;;;12.62;100.00;99075.53;109418;1251;72927;-53
2024/04/03 01:50:38;;;;;;;15.50;10.00;;;;;;;12.59;100.00;99066.56;109423;1251;60514;-53
2024/04/03 01:53:06;;;;;;;11.80;6.10;;;;;;;12.56;100.00;99066.00;109418;1251;60243;-53
2024/04/03 01:55:33;;;;;;;13.10;5.30;;;;;;;12.53;100.00;99058.94;109435;1251;74907;-54
2024/04/03 01:58:00;;;;;;;7.10;3.30;;;;;;;12.56;100.00;99053.61;109426;1251;67084;-53
2024/04/03 02:00:28;;;;;;;11.40;3.00;;;;;;;12.56;100.00;99055.23;109396;1251;72523;-53
2024/04/03 02:02:55;;;;;;;9.10;3.40;;;;;;;12.53;100.00;99053.95;109374;1251;60396;-54
2024/04/03 02:05:23;;;;;;;8.60;2.00;;;;;;;12.48;100.00;99050.29;109411;1251;59930;-54
2024/04/03 02:07:50;;;;;;;7.20;3.00;;;;;;;12.46;100.00;99055.27;109488;1250;75579;-53
2024/04/03 02:10:18;;;;;;;13.10;4.50;;;;;;;12.40;100.00;99051.73;109513;1250;65642;-54
2024/04/03 02:12:45;;;;;;;16.70;10.40;;;;;;;12.35;100.00;99047.79;109411;1252;72729;-59
2024/04/03 02:15:13;;;;;;;10.50;3.40;;;;;;;12.32;100.00;99039.52;109436;1250;60102;-53
2024/04/03 02:17:40;;;;;;;9.40;5.60;;;;;;;12.31;100.00;99045.84;109461;1249;60093;-53
2024/04/03 02:20:08;;;;;;;10.30;5.20;;;;;;;12.35;100.00;99034.81;109467;1249;75912;-53
2024/04/03 02:22:35;;;;;;;14.30;8.00;;;;;;;12.38;100.00;99035.06;109483;1249;67149;-54
2024/04/03 02:25:03;;;;;;;8.10;3.40;;;;;;;12.41;100.00;99045.00;109419;1252;71913;-54
2024/04/03 02:27:30;;;;;;;12.30;4.90;;;;;;;12.43;100.00;99042.66;109407;1250;59740;-54
2024/04/03 02:29:58;;;;;;;9.70;3.50;;;;;;;12.45;100.00;99039.34;109444;1249;60162;-53
2024/04/03 02:32:25;;;;;;;8.90;3.90;;;;;;;12.45;100.00;99039.29;109581;1250;73249;-54
2024/04/03 02:34:54;;;;;;;9.50;6.10;;;;;;;12.45;100.00;99049.01;109453;1250;66954;-58
2024/04/03 02:37:22;;;;;;;13.10;7.70;;;;;;;12.46;100.00;99043.80;109425;1250;71446;-54
2024/04/03 02:39:49;;;;;;;14.10;8.60;;;;;;;12.44;100.00;99047.52;109363;1250;59815;-54
2024/04/03 02:42:17;;;;;;;12.90;5.10;;;;;;;12.42;100.00;99049.94;109486;1250;60174;-53
2024/04/03 02:44:44;;;;;;;10.70;4.80;;;;;;;12.36;100.00;99045.31;109466;1250;75536;-53
2024/04/03 02:47:12;;;;;;;10.80;4.20;;;;;;;12.36;100.00;99044.94;109442;1252;66242;-54
2024/04/03 02:49:39;;;;;;;9.70;3.00;;;;;;;12.30;100.00;99040.98;109471;1250;71439;-54
2024/04/03 02:52:06;;;;;;;10.30;3.20;;;;;;;12.23;100.00;99046.23;109482;1252;59761;-54
2024/04/03 02:54:34;;;;;;;10.70;2.80;;;;;;;12.17;100.00;99050.07;109440;1250;60096;-54
2024/04/03 02:57:01;;;;;;;8.00;3.40;;;;;;;12.11;100.00;99051.15;109474;1250;74229;-56
2024/04/03 02:59:28;;;;;;;8.70;3.30;;;;;;;12.08;100.00;99043.34;109447;1250;67574;-54
2024/04/03 03:01:56;;;;;;;21.70;12.60;;;;;;;12.06;100.00;99031.33;109411;1250;72713;-53
2024/04/03 03:04:24;;;;;;;22.70;16.10;;;;;;;12.05;100.00;99027.66;109435;1253;59779;-53
2024/04/03 03:06:52;;;;;;;37.70;22.50;;;;;;;12.07;100.00;99031.24;109496;1250;59911;-54
2024/04/03 03:09:23;;;;;;;23.00;14.70;;;;;;;12.03;100.00;99029.73;109412;1250;74259;-54
2024/04/03 03:11:51;;;;;;;20.00;12.30;;;;;;;11.99;100.00;99027.02;109502;1250;65865;-53
2024/04/03 03:14:18;;;;;;;11.70;7.30;;;;;;;11.99;100.00;99030.67;109477;1250;72705;-55
2024/04/03 03:16:46;;;;;;;10.90;5.40;;;;;;;11.97;100.00;99033.34;109452;1250;60511;-54
2024/04/03 03:19:13;;;;;;;12.90;8.50;;;;;;;11.96;100.00;99038.58;109488;1250;60207;-53
2024/04/03 03:21:40;;;;;;;12.80;6.00;;;;;;;11.93;100.00;99049.37;109446;1249;76042;-54
2024/04/03 03:24:08;;;;;;;12.30;4.20;;;;;;;11.93;100.00;99058.78;109506;1249;67027;-54
2024/04/03 03:26:35;;;;;;;12.00;4.40;;;;;;;11.96;100.00;99066.90;109424;1252;72734;-54
2024/04/03 03:29:03;;;;;;;16.40;8.50;;;;;;;12.00;100.00;99058.53;109414;1250;59744;-53
2024/04/03 03:31:30;;;;;;;12.80;7.80;;;;;;;12.04;100.00;99054.77;109395;1250;59973;-57
2024/04/03 03:33:58;;;;;;;22.10;14.20;;;;;;;12.09;100.00;99062.80;109481;1250;75491;-53
2024/04/03 03:36:25;;;;;;;40.20;29.50;;;;;;;12.11;100.00;99061.95;109471;1249;67469;-54
2024/04/03 03:38:52;;;;;;;35.60;26.30;;;;;;;12.10;100.00;99069.05;109455;1249;71459;-54
2024/04/03 03:41:20;;;;;;;25.90;18.20;;;;;;;12.11;100.00;99073.40;109436;1250;60130;-53
2024/04/03 03:43:47;;;;;;;25.00;14.70;;;;;;;12.12;100.00;99071.39;109423;1250;59890;-56
2024/04/03 03:46:16;;;;;;;12.80;5.50;;;;;;;12.16;100.00;99077.68;109472;1249;74270;-53
2024/04/03 03:54:16;;;;;;;10.70;3.80;;;;;;;12.25;100.00;99109.41;109425;1250;60269;-54
2024/04/03 03:56:43;;;;;;;12.30;3.50;;;;;;;12.29;100.00;99114.20;109408;1250;59680;-53
2024/04/03 03:59:11;;;;;;;11.30;4.00;;;;;;;12.32;100.00;99117.59;109422;1250;75495;-53
2024/04/03 04:01:38;;;;;;;12.30;4.10;;;;;;;12.38;100.00;99129.81;109457;1250;67001;-54
2024/04/03 04:04:06;;;;;;;12.90;4.80;;;;;;;12.45;100.00;99123.52;109489;1249;72697;-55
2024/04/03 04:06:33;;;;;;;12.60;4.40;;;;;;;12.53;100.00;99122.02;109486;1250;60100;-56
2024/04/03 04:09:00;;;;;;;12.50;4.60;;;;;;;12.62;100.00;99121.41;109488;1251;60198;-56
2024/04/03 04:11:28;;;;;;;12.20;4.00;;;;;;;12.72;100.00;99114.08;109452;1250;74216;-56
2024/04/03 04:13:55;;;;;;;12.80;3.70;;;;;;;12.79;100.00;99107.04;109365;1252;65185;-54
2024/04/03 04:16:23;;;;;;;13.90;4.30;;;;;;;12.82;100.00;99111.29;109477;1249;71439;-54
2024/04/03 04:18:50;;;;;;;7.70;3.30;;;;;;;12.86;100.00;99112.77;109469;1249;59787;-56
2024/04/03 04:21:18;;;;;;;8.20;3.80;;;;;;;12.95;100.00;99120.02;109508;1249;60140;-53
2024/04/03 04:23:46;;;;;;;11.90;3.70;;;;;;;13.07;100.00;99134.16;109413;1250;74551;-58
2024/04/03 04:26:13;;;;;;;10.10;3.20;;;;;;;13.19;100.00;99149.92;109360;1250;66475;-54
2024/04/03 04:28:40;;;;;;;11.60;3.90;;;;;;;13.29;100.00;99160.86;109506;1249;72752;-54
2024/04/03 04:31:08;;;;;;;13.40;3.30;;;;;;;13.36;100.00;99147.67;109443;1250;59796;-53
2024/04/03 04:33:37;;;;;;;9.50;3.40;;;;;;;13.45;100.00;99136.56;109568;1250;60211;-53
2024/04/03 04:36:05;;;;;;;15.90;5.50;;;;;;;13.57;100.00;99130.30;109426;1250;75358;-54
2024/04/03 04:38:32;;;;;;;13.00;6.40;;;;;;;13.69;100.00;99133.70;109478;1250;67544;-54
2024/04/03 04:41:01;;;;;;;15.90;4.50;;;;;;;13.79;100.00;99132.19;109505;1250;72423;-56
2024/04/03 04:43:30;;;;;;;13.50;4.80;;;;;;;13.91;100.00;99132.42;109446;1250;59699;-54
2024/04/03 04:46:04;;;;;;;10.00;3.70;;;;;;;14.11;100.00;99126.41;109397;1250;59697;-61
2024/04/03 04:48:32;;;;;;;9.90;3.70;;;;;;;14.32;100.00;99130.37;109434;1250;75524;-56
2024/04/03 04:51:00;;;;;;;8.40;3.20;;;;;;;14.45;100.00;99145.91;109461;1250;67042;-56
2024/04/03 04:53:28;;;;;;;9.20;3.20;;;;;;;14.66;100.00;99143.20;109445;1249;71352;-56
2024/04/03 04:56:03;;;;;;;12.60;3.80;;;;;;;15.01;100.00;99145.41;109427;1249;60098;-61
2024/04/03 04:58:31;;;;;;;12.10;4.20;;;;;;;15.33;100.00;99153.76;109500;1250;60189;-59
2024/04/03 05:01:06;;;;;;;13.60;3.60;;;;;;;15.41;100.00;99162.05;109492;1250;75560;-56
2024/04/03 05:03:34;;;;;;;8.60;2.90;;;;;;;15.34;100.00;99158.81;109476;1250;66033;-56
2024/04/03 05:06:01;;;;;;;16.70;4.20;;;;;;;15.24;100.00;99153.98;109444;1250;72431;-56
2024/04/03 05:08:30;;;;;;;11.00;3.40;;;;;;;15.12;100.00;99167.60;109420;1250;60332;-56
2024/04/03 05:10:58;;;;;;;12.80;2.90;;;;;;;14.97;100.00;99161.44;109451;1249;60250;-56
2024/04/03 05:13:30;;;;;;;10.30;3.50;;;;;;;14.83;100.00;99174.02;109479;1249;75540;-54
2024/04/03 05:15:57;;;;;;;10.80;3.00;;;;;;;14.69;100.00;99181.13;109429;1249;65620;-54
2024/04/03 05:18:25;;;;;;;13.90;3.80;;;;;;;14.57;100.00;99186.49;109237;1250;70879;-54
2024/04/03 05:20:52;;;;;;;16.70;4.50;;;;;;;14.49;100.00;99186.11;109452;1250;59776;-55
2024/04/03 05:23:20;;;;;;;11.80;3.70;;;;;;;14.42;100.00;99174.80;109485;1250;59855;-54
2024/04/03 05:25:55;;;;;;;13.30;3.80;;;;;;;14.48;100.00;99160.55;109407;1250;75577;-54
2024/04/03 05:28:31;;;;;;;17.90;4.50;;;;;;;14.63;100.00;99144.00;109456;1249;65559;-54
2024/04/03 05:31:06;;;;;;;15.60;3.50;;;;;;;14.78;100.00;99156.27;109448;1250;71403;-55
2024/04/03 05:33:34;;;;;;;23.50;4.10;;;;;;;14.92;100.00;99175.42;109389;1251;60019;-54
2024/04/03 05:36:02;;;;;;;17.60;4.10;;;;;;;15.01;100.00;99174.16;109484;1250;61501;-56
2024/04/03 05:38:29;;;;;;;12.00;4.10;;;;;;;15.12;100.00;99185.15;109456;1249;76130;-56
2024/04/03 05:40:57;;;;;;;11.90;3.80;;;;;;;15.25;100.00;99198.95;109464;1250;67840;-54
2024/04/03 05:43:37;;;;;;;10.80;4.20;;;;;;;15.36;100.00;99204.63;109450;1250;75328;-56
2024/04/03 05:46:04;;;;;;;11.00;3.90;;;;;;;15.40;100.00;99197.33;109447;1250;62914;-56
2024/04/03 05:48:32;;;;;;;12.50;3.90;;;;;;;15.40;100.00;99186.77;109477;1249;60083;-56
2024/04/03 05:51:03;;;;;;;12.50;3.40;;;;;;;15.39;100.00;99174.21;109448;1250;75516;-56
2024/04/03 05:53:31;;;;;;;14.10;4.60;;;;;;;15.34;100.00;99191.41;109426;1250;67444;-60
2024/04/03 05:56:00;;;;;;;19.70;5.20;;;;;;;15.32;100.00;99205.93;109426;1250;74915;-55
2024/04/03 05:58:27;;;;;;;15.70;4.80;;;;;;;15.29;100.00;99196.13;109413;1250;62655;-56
2024/04/03 06:00:57;;;;;;;17.10;4.30;;;;;;;15.31;100.00;99192.85;109483;1250;61393;-55
2024/04/03 06:03:24;;;;;;;12.90;3.90;;;;;;;15.42;100.00;99197.36;109485;1250;77981;-55
2024/04/03 06:05:53;;;;;;;16.20;4.70;;;;;;;15.55;100.00;99199.61;109425;1250;69041;-55
2024/04/03 06:08:21;;;;;;;12.00;3.70;;;;;;;15.71;100.00;99199.95;109480;1250;72785;-55
2024/04/03 06:10:48;;;;;;;17.40;3.70;;;;;;;15.78;100.00;99195.69;109491;1250;62695;-55
2024/04/03 06:13:16;;;;;;;15.80;4.70;;;;;;;15.79;100.00;99198.22;109470;1250;62648;-54
2024/04/03 06:15:44;;;;;;;13.20;4.20;;;;;;;15.82;100.00;99205.10;109427;1250;76806;-54
2024/04/03 06:18:12;;;;;;;10.50;3.80;;;;;;;15.85;100.00;99207.30;109476;1250;69784;-56
2024/04/03 06:20:40;;;;;;;14.40;4.20;;;;;;;15.88;100.00;99201.70;109443;1251;75479;-54
2024/04/03 06:23:08;;;;;;;9.90;3.70;;;;;;;15.96;100.00;99195.67;109446;1250;62155;-54
2024/04/03 06:25:36;;;;;;;13.30;3.60;;;;;;;16.24;100.00;99195.52;109459;1250;61147;-57
2024/04/03 06:28:05;;;;;;;12.80;3.30;;;;;;;16.71;100.00;99196.95;109491;1250;78405;-57
2024/04/03 06:30:32;;;;;;;12.50;3.80;;;;;;;17.31;100.00;99187.88;109509;1249;69459;-56
2024/04/03 06:33:00;;;;;;;14.00;4.40;;;;;;;17.94;100.00;99179.72;109461;1250;72923;-54
2024/04/03 06:35:27;;;;;;;17.00;4.50;;;;;;;18.65;100.00;99186.48;109431;1250;62630;-57
2024/04/03 06:37:55;;;;;;;12.90;4.20;;;;;;;19.37;97.03;99196.39;109391;1250;61386;-54
2024/04/03 06:40:22;;;;;;;11.10;4.20;;;;;;;19.99;83.31;99205.66;109445;1250;76480;-55
2024/04/03 06:42:50;;;;;;;13.80;3.30;;;;;;;20.46;75.05;99210.69;109536;1250;67882;-55
2024/04/03 06:45:18;;;;;;;11.30;3.40;;;;;;;21.03;69.93;99217.38;109372;1251;73944;-54
2024/04/03 06:47:47;;;;;;;11.90;4.40;;;;;;;21.59;60.76;99225.72;109458;1250;62126;-54
2024/04/03 06:50:15;;;;;;;10.90;3.80;;;;;;;21.79;55.41;99222.69;109399;1251;62171;-54
2024/04/03 06:52:42;;;;;;;10.00;4.10;;;;;;;21.70;52.91;99212.50;109479;1249;77538;-53
2024/04/03 06:55:10;;;;;;;12.80;4.60;;;;;;;21.41;53.37;99211.66;109481;1250;69413;-54
2024/04/03 06:57:38;;;;;;;15.70;5.10;;;;;;;21.13;54.57;99215.34;109404;1250;74177;-54
2024/04/03 07:00:06;;;;;;;10.40;3.70;;;;;;;20.92;55.91;99223.99;109428;1250;61532;-54
2024/04/03 07:02:34;;;;;;;10.60;4.20;;;;;;;20.73;56.36;99232.02;109440;1251;62571;-55
2024/04/03 07:05:01;;;;;;;11.30;3.90;;;;;;;20.42;57.81;99234.48;109482;1250;76885;-54
2024/04/03 07:07:29;;;;;;;13.60;3.60;;;;;;;20.10;61.45;99228.42;109481;1250;69356;-58
2024/04/03 07:09:58;;;;;;;17.70;4.30;;;;;;;19.97;64.42;99217.59;109438;1252;73724;-54
2024/04/03 07:12:26;;;;;;;12.60;3.60;;;;;;;19.94;64.53;99220.17;109413;1250;61642;-56
2024/04/03 07:14:54;;;;;;;12.40;3.40;;;;;;;19.86;63.55;99228.88;109456;1250;62108;-55
2024/04/03 07:17:22;;;;;;;10.30;3.30;;;;;;;19.74;65.02;99227.95;109521;1250;77971;-54
2024/04/03 07:19:50;;;;;;;7.20;3.20;;;;;;;19.83;68.42;99214.02;109398;1250;65485;-55
2024/04/03 07:22:17;;;;;;;8.80;3.10;;;;;;;20.30;64.49;99201.61;109477;1250;74781;-55
2024/04/03 07:24:45;;;;;;;11.00;3.40;;;;;;;20.95;60.16;99198.73;109429;1251;62678;-54
2024/04/03 07:27:12;;;;;;;10.10;3.80;;;;;;;21.66;54.34;99208.66;109452;1249;62050;-55
2024/04/03 07:29:40;;;;;;;9.30;3.20;;;;;;;22.21;50.27;99209.69;109491;1250;77962;-58
2024/04/03 07:32:08;;;;;;;9.00;3.00;;;;;;;22.76;44.95;99214.75;109497;1250;68875;-55
2024/04/03 07:34:35;;;;;;;7.40;2.70;;;;;;;23.22;41.70;99211.27;109456;1250;73474;-55
2024/04/03 07:37:03;;;;;;;6.20;2.70;;;;;;;23.59;39.65;99208.72;109452;1250;61170;-57
2024/04/03 07:39:31;;;;;;;9.50;3.20;;;;;;;23.75;38.48;99225.93;109464;1250;62605;-60
2024/04/03 07:41:58;;;;;;;12.40;3.30;;;;;;;23.60;37.97;99236.77;109498;1250;77647;-56
2024/04/03 07:44:26;;;;;;;6.00;2.90;;;;;;;23.30;38.54;99233.20;109493;1250;68020;-55
2024/04/03 07:46:53;;;;;;;6.70;3.30;;;;;;;23.01;39.06;99232.35;109464;1250;75254;-57
2024/04/03 07:49:21;;;;;;;9.10;2.70;;;;;;;22.79;39.58;99239.45;109468;1250;60144;-55
2024/04/03 07:51:49;;;;;;;6.90;2.40;;;;;;;22.58;40.15;99239.48;109413;1250;62120;-58
2024/04/03 07:54:16;;;;;;;8.60;3.30;;;;;;;22.45;40.50;99238.96;109491;1250;77942;-54
2024/04/03 07:56:44;;;;;;;7.40;3.40;;;;;;;22.32;41.45;99236.61;109466;1250;69469;-58
2024/04/03 07:59:12;;;;;;;11.20;4.10;;;;;;;22.27;42.08;99250.35;109437;1251;75200;-53
2024/04/03 08:01:40;;;;;;;9.80;3.80;;;;;;;22.39;42.43;99258.17;109455;1250;62677;-55
2024/04/03 08:04:08;;;;;;;10.70;4.50;;;;;;;22.73;41.90;99259.62;109480;1250;61635;-54
2024/04/03 08:06:35;;;;;;;14.10;4.90;;;;;;;23.16;40.63;99261.41;109480;1250;77937;-54
2024/04/03 08:09:03;;;;;;;9.50;3.70;;;;;;;23.50;39.72;99264.89;109462;1253;67878;-53
2024/04/03 08:11:32;;;;;;;9.50;3.90;;;;;;;23.68;39.02;99266.27;109456;1250;75217;-56
2024/04/03 08:14:00;;;;;;;10.60;3.50;;;;;;;23.88;38.24;99253.80;109366;1250;61309;-56
2024/04/03 08:16:28;;;;;;;6.90;3.10;;;;;;;24.16;37.55;99254.69;109423;1250;61942;-54
2024/04/03 08:18:56;;;;;;;6.80;3.30;;;;;;;24.48;36.59;99265.08;109495;1250;76933;-55
2024/04/03 08:21:23;;;;;;;6.00;2.80;;;;;;;24.70;35.63;99265.77;109493;1250;69396;-55
2024/04/03 08:23:51;;;;;;;8.30;2.70;;;;;;;24.86;34.75;99271.86;109463;1250;74193;-53
2024/04/03 08:26:19;;;;;;;13.70;4.30;;;;;;;24.92;34.22;99265.08;109425;1249;62149;-53
2024/04/03 08:28:46;;;;;;;4.50;2.10;;;;;;;25.06;33.79;99262.02;109475;1249;61445;-54
2024/04/03 08:31:15;;;;;;;4.20;2.10;;;;;;;25.18;32.62;99263.63;109466;1250;76311;-54
2024/04/03 08:33:43;;;;;;;8.60;1.90;;;;;;;25.04;32.63;99264.54;109533;1250;68467;-56
2024/04/03 08:36:10;;;;;;;5.90;2.30;;;;;;;24.92;32.39;99257.27;109445;1249;73759;-56
2024/04/03 08:38:38;;;;;;;9.20;2.60;;;;;;;25.10;31.86;99255.27;109465;1252;62357;-55
2024/04/03 08:41:06;;;;;;;5.00;2.60;;;;;;;25.35;31.30;99258.37;109526;1250;62158;-55
2024/04/03 08:43:36;;;;;;;2.20;1.00;;;;;;;25.33;31.31;99266.98;109489;1249;78301;-56
2024/04/03 08:46:04;;;;;;;4.40;2.10;;;;;;;25.14;31.46;99268.09;109466;1249;69562;-56
2024/04/03 08:48:32;;;;;;;5.20;2.70;;;;;;;24.97;31.76;99262.01;109413;1250;73657;-56
2024/04/03 08:50:59;;;;;;;4.30;2.60;;;;;;;24.82;32.34;99268.66;109466;1250;62339;-55
2024/04/03 08:53:27;;;;;;;2.80;1.30;;;;;;;24.88;32.59;99265.48;109443;1250;61158;-56
2024/04/03 08:55:55;;;;;;;4.70;0.90;;;;;;;25.12;32.16;99263.66;109355;1250;76747;-55
2024/04/03 08:58:22;;;;;;;1.80;0.90;;;;;;;25.30;31.67;99265.58;109457;1250;70082;-55
2024/04/03 09:00:50;;;;;;;3.50;1.10;;;;;;;25.49;31.57;99259.86;109496;1250;74844;-55
2024/04/03 09:03:19;;;;;;;5.90;1.10;;;;;;;25.71;30.62;99256.95;109435;1250;62558;-55
2024/04/03 09:05:47;;;;;;;1.10;0.50;;;;;;;25.75;30.03;99268.02;109512;1250;62727;-56
2024/04/03 09:08:15;;;;;;;2.10;0.70;;;;;;;25.77;29.85;99258.52;109426;1250;77416;-56
2024/04/03 09:10:49;;;;;;;1.20;0.60;;;;;;;25.68;29.52;99258.69;109530;1249;69534;-55
2024/04/03 09:13:17;;;;;;;3.10;0.80;;;;;;;25.15;29.77;99263.75;109491;1252;75259;-55
2024/04/03 09:15:44;;;;;;;3.50;1.00;;;;;;;24.55;30.67;99262.42;109464;1250;62582;-59
2024/04/03 09:18:14;;;;;;;2.90;0.70;;;;;;;24.16;31.39;99251.96;109446;1250;61496;-55
2024/04/03 09:20:41;;;;;;;2.00;0.60;;;;;;;23.77;32.25;99251.48;109565;1250;77990;-55
2024/04/03 09:23:09;;;;;;;3.70;0.70;;;;;;;23.51;32.69;99252.79;109523;1250;67854;-56
2024/04/03 09:25:37;;;;;;;2.60;0.70;;;;;;;23.32;32.68;99261.90;109466;1250;74803;-55
2024/04/03 09:28:06;;;;;;;1.40;0.50;;;;;;;23.32;32.62;99262.84;109494;1251;62183;-58
2024/04/03 09:30:48;;;;;;;1.90;0.60;;;;;;;23.57;32.48;99268.59;109526;1250;62098;-55
2024/04/03 09:33:18;;;;;;;1.20;0.50;;;;;;;23.81;31.84;99274.68;109539;1250;77881;-55
2024/04/03 09:35:47;;;;;;;0.70;0.40;;;;;;;23.83;31.33;99277.21;109537;1250;69487;-55
2024/04/03 09:38:15;;;;;;;0.90;0.50;;;;;;;23.69;31.22;99276.59;109454;1250;73271;-55
2024/04/03 09:40:43;;;;;;;0.60;0.40;;;;;;;23.39;31.50;99283.36;109496;1250;61193;-55
2024/04/03 09:43:11;;;;;;;1.80;0.60;;;;;;;23.06;31.98;99290.90;109432;1250;61439;-55
2024/04/03 09:45:39;;;;;;;1.90;0.40;;;;;;;22.71;32.28;99311.48;109542;1250;77986;-55
2024/04/03 09:48:07;;;;;;;1.80;0.60;;;;;;;22.32;32.84;99325.48;109429;1250;68574;-57
2024/04/03 09:50:37;;;;;;;3.10;0.60;;;;;;;21.91;33.75;99329.81;109545;1250;74169;-55
2024/04/03 09:53:09;;;;;;;2.70;0.80;;;;;;;21.57;34.47;99339.87;109476;1250;61507;-55
2024/04/03 09:55:36;;;;;;;3.90;0.50;;;;;;;21.26;35.46;99357.14;109452;1250;61463;-55
2024/04/03 09:58:11;;;;;;;2.70;0.70;;;;;;;20.88;36.35;99364.98;109442;1250;78000;-59
2024/04/03 10:00:39;;;;;;;1.00;0.30;;;;;;;20.53;37.32;99369.52;109567;1250;68606;-55
2024/04/03 10:03:20;;;;;;;6.90;0.90;;;;;;;20.25;37.93;99376.98;109498;1250;75264;-55
2024/04/03 10:05:48;;;;;;;2.50;0.60;;;;;;;19.98;38.96;99381.37;109469;1250;62157;-58
2024/04/03 10:08:16;;;;;;;1.50;0.50;;;;;;;19.79;39.43;99385.80;109523;1250;62508;-55
2024/04/03 10:10:44;;;;;;;1.40;0.50;;;;;;;19.63;39.99;99379.23;109507;1250;77368;-55
2024/04/03 10:13:21;;;;;;;1.40;0.60;;;;;;;19.46;40.78;99381.11;109522;1249;68925;-54
2024/04/03 10:16:08;;;;;;;1.60;0.40;;;;;;;19.29;41.53;99369.03;109510;1250;74154;-58
2024/04/03 10:18:36;;;;;;;0.70;0.30;;;;;;;19.19;42.49;99376.67;109481;1250;61961;-54
2024/04/03 10:21:05;;;;;;;0.70;0.20;;;;;;;19.29;43.02;99369.36;109484;1250;62559;-53
2024/04/03 10:23:43;;;;;;;3.50;0.30;;;;;;;19.49;42.37;99366.95;109501;1251;78206;-53
2024/04/03 10:26:11;;;;;;;2.00;0.30;;;;;;;19.68;41.65;99361.33;109496;1249;67851;-54
2024/04/03 10:28:39;;;;;;;0.90;0.30;;;;;;;19.76;41.52;99355.03;109479;1249;74792;-55
2024/04/03 10:31:08;;;;;;;1.60;0.50;;;;;;;19.76;41.70;99354.14;109494;1250;59992;-54
2024/04/03 10:33:36;;;;;;;3.90;0.80;;;;;;;19.80;41.95;99362.65;109472;1250;61115;-61
2024/04/03 10:36:04;;;;;;;1.60;0.60;;;;;;;19.90;41.86;99363.23;109488;1250;76458;-54
2024/04/03 10:38:35;;;;;;;3.10;0.60;;;;;;;20.02;41.78;99358.40;109541;1250;68843;-54
2024/04/03 10:41:04;;;;;;;3.00;0.80;;;;;;;20.20;42.10;99364.66;109505;1250;75364;-55
2024/04/03 10:43:31;;;;;;;1.30;0.60;;;;;;;20.49;41.82;99366.35;109228;1250;61129;-54
2024/04/03 10:45:59;;;;;;;1.80;0.60;;;;;;;20.87;41.23;99367.65;109476;1249;60861;-58
2024/04/03 10:48:26;;;;;;;2.10;0.40;;;;;;;21.28;40.62;99364.20;109516;1250;77787;-54
2024/04/03 10:50:54;;;;;;;2.20;0.70;;;;;;;21.61;39.45;99363.35;109534;1250;68288;-55
2024/04/03 10:53:21;;;;;;;1.40;0.60;;;;;;;21.80;38.73;99360.73;109528;1250;74710;-54
2024/04/03 10:55:49;;;;;;;2.00;0.50;;;;;;;21.91;37.39;99365.25;109519;1250;61186;-55
2024/04/03 10:58:17;;;;;;;3.40;0.70;;;;;;;21.97;37.65;99370.62;109471;1250;62561;-54
2024/04/03 11:00:44;;;;;;;1.30;0.50;;;;;;;22.09;37.17;99370.66;109587;1250;76415;-55
2024/04/03 11:03:14;;;;;;;2.30;0.50;;;;;;;22.13;36.60;99364.05;109512;1250;68419;-54
2024/04/03 11:05:42;;;;;;;1.40;0.50;;;;;;;22.14;36.55;99359.02;109495;1250;74072;-55
2024/04/03 11:08:13;;;;;;;1.30;0.30;;;;;;;22.15;36.58;99357.73;109419;1250;61116;-55
2024/04/03 11:10:40;;;;;;;1.40;0.60;;;;;;;22.20;36.31;99356.29;109487;1249;61477;-55
2024/04/03 11:13:09;;;;;;;0.70;0.40;;;;;;;22.20;35.98;99355.56;109467;1250;77262;-55
2024/04/03 11:15:38;;;;;;;0.90;0.30;;;;;;;22.20;35.63;99349.50;109271;1250;231546;-55
2024/04/03 11:18:06;;;;;;;2.30;0.50;;;;;;;22.16;35.50;99351.77;109399;1250;74806;-55
2024/04/03 11:20:34;;;;;;;1.50;0.80;;;;;;;22.07;35.75;99351.95;109456;1250;59799;-55
2024/04/03 11:23:03;;;;;;;2.80;0.70;;;;;;;22.12;36.10;99347.29;109475;1250;61460;-54
2024/04/03 11:25:32;;;;;;;7.30;1.90;;;;;;;22.27;35.82;99348.84;109522;1250;77737;-55
2024/04/03 11:28:03;;;;;;;2.90;1.10;;;;;;;22.54;36.11;99344.13;109465;1256;70158;-55